Time;durP1;ratioP1;P1;durP2;ratioP2;P2;SDS_P1;SDS_P2;PMS_P1;PMS_P2;Temp;Humidity;BMP_temperature;BMP_pressure;BME280_temperature;BME280_humidity;BME280_pressure;Samples;Min_cycle;Max_cycle;Signal;HPM_P1;HPM_P2
2022/12/20 00:00:17;;;;;;;9.57;8.32;;;;;;;7.80;100.00;101169.94;10541646;28;20404;-75
2022/12/20 00:05:18;;;;;;;10.50;9.25;;;;;;;7.77;100.00;101165.75;10568987;27;20052;-76
2022/12/20 00:10:19;;;;;;;14.05;9.50;;;;;;;7.73;100.00;101159.06;10543187;28;20036;-77
2022/12/20 00:15:20;;;;;;;10.25;9.25;;;;;;;7.66;100.00;101148.16;10541636;28;20032;-77
2022/12/20 00:20:20;;;;;;;10.13;9.15;;;;;;;7.62;100.00;101154.31;10539959;27;20048;-77
2022/12/20 00:25:21;;;;;;;9.98;9.00;;;;;;;7.63;100.00;101147.78;10534230;28;20040;-76
2022/12/20 00:30:22;;;;;;;10.82;9.32;;;;;;;7.65;100.00;101156.63;10544148;28;20028;-76
2022/12/20 00:35:22;;;;;;;10.13;9.13;;;;;;;7.71;100.00;101155.72;10540465;28;20074;-76
2022/12/20 00:40:23;;;;;;;12.63;9.05;;;;;;;7.79;100.00;101157.28;10538968;28;20047;-77
2022/12/20 00:45:23;;;;;;;12.75;9.00;;;;;;;7.80;100.00;101159.81;10543339;28;20107;-75
2022/12/20 00:50:24;;;;;;;9.52;8.00;;;;;;;7.84;100.00;101150.06;10581527;27;20066;-77
2022/12/20 00:55:24;;;;;;;9.40;7.75;;;;;;;7.88;100.00;101154.00;10581257;28;20028;-77
2022/12/20 01:00:25;;;;;;;8.73;7.40;;;;;;;7.87;100.00;101133.16;10583198;27;20054;-76
2022/12/20 01:05:26;;;;;;;8.63;7.03;;;;;;;8.09;100.00;101135.41;10558495;27;20044;-76
2022/12/20 01:10:26;;;;;;;8.65;6.32;;;;;;;8.19;100.00;101119.22;10539190;28;20043;-76
2022/12/20 01:15:27;;;;;;;8.15;7.30;;;;;;;8.07;100.00;101101.88;10563878;28;20040;-76
2022/12/20 01:20:28;;;;;;;6.97;6.28;;;;;;;8.20;100.00;101118.16;10551951;28;20047;-76
2022/12/20 01:25:29;;;;;;;7.47;6.65;;;;;;;8.27;100.00;101107.94;10559921;27;20035;-78
2022/12/20 01:30:30;;;;;;;6.97;6.28;;;;;;;7.80;100.00;101041.94;10570103;28;20504;-75
2022/12/20 01:35:31;;;;;;;11.05;6.82;;;;;;;8.25;100.00;101121.03;10520393;28;20134;-77
2022/12/20 01:40:31;;;;;;;7.72;6.75;;;;;;;8.23;100.00;101114.97;10537642;28;20040;-77
2022/12/20 01:45:32;;;;;;;7.75;7.00;;;;;;;8.15;100.00;101111.72;10520839;28;20132;-78
2022/12/20 01:50:33;;;;;;;7.13;6.53;;;;;;;8.15;100.00;101104.31;10578727;28;20058;-77
2022/12/20 01:55:34;;;;;;;7.65;6.95;;;;;;;8.17;100.00;101104.91;10604430;27;20085;-76
2022/12/20 02:00:36;;;;;;;8.07;7.38;;;;;;;8.15;100.00;101098.81;10604132;27;20057;-76
2022/12/20 02:05:38;;;;;;;7.47;6.07;;;;;;;8.13;100.00;101098.22;10608854;27;20027;-75
2022/12/20 02:10:53;;;;;;;7.35;6.35;;;;;;;8.18;100.00;101094.78;10591840;27;20047;-76
2022/12/20 02:15:55;;;;;;;8.07;6.90;;;;;;;8.11;100.00;101085.81;10573172;27;20412;-76
2022/12/20 02:21:01;;;;;;;7.13;6.53;;;;;;;8.18;100.00;101098.34;10556500;27;20127;-75
2022/12/20 02:26:23;;;;;;;6.88;6.30;;;;;;;8.26;100.00;101075.25;10562453;28;20040;-75
2022/12/20 02:31:26;;;;;;;6.95;6.35;;;;;;;8.28;100.00;101073.94;10546688;28;20032;-76
2022/12/20 02:36:26;;;;;;;7.47;6.45;;;;;;;8.16;100.00;101062.09;10529697;28;20077;-75
2022/12/20 02:41:36;;;;;;;7.45;5.95;;;;;;;8.34;100.00;101076.81;10546957;28;20043;-76
2022/12/20 02:46:36;;;;;;;7.38;6.68;;;;;;;8.34;100.00;101065.84;10549601;28;20031;-75
2022/12/20 02:51:37;;;;;;;9.18;7.03;;;;;;;8.31;100.00;101071.78;10545868;28;20329;-75
2022/12/20 02:56:41;;;;;;;7.55;6.85;;;;;;;8.28;100.00;101062.97;10544957;28;20028;-76
2022/12/20 03:01:45;;;;;;;6.65;6.05;;;;;;;8.45;100.00;101068.66;10548311;28;20047;-77
2022/12/20 03:07:05;;;;;;;6.22;5.63;;;;;;;8.49;100.00;101052.53;10552117;27;20036;-77
2022/12/20 03:12:07;;;;;;;7.00;6.40;;;;;;;8.45;100.00;101059.56;10584150;27;20036;-77
2022/12/20 03:17:07;;;;;;;6.85;6.13;;;;;;;8.42;100.00;101052.66;10568432;27;20032;-76
2022/12/20 03:22:08;;;;;;;9.73;7.72;;;;;;;8.35;100.00;101056.53;10560262;27;20039;-77
2022/12/20 03:27:08;;;;;;;8.60;7.90;;;;;;;8.27;100.00;101066.78;10586265;27;20054;-76
2022/12/20 03:32:09;;;;;;;10.80;9.20;;;;;;;8.15;100.00;101071.41;10547732;28;20093;-75
2022/12/20 03:37:09;;;;;;;10.68;9.60;;;;;;;7.98;100.00;101057.50;10558880;28;20039;-77
2022/12/20 03:42:10;;;;;;;11.25;10.30;;;;;;;7.97;100.00;101055.00;10545941;28;20084;-76
2022/12/20 03:47:10;;;;;;;12.52;11.25;;;;;;;7.95;100.00;101051.66;10528488;28;20040;-77
2022/12/20 03:52:11;;;;;;;13.30;11.55;;;;;;;7.87;100.00;101056.41;10544908;28;20032;-77
2022/12/20 03:57:12;;;;;;;13.55;12.45;;;;;;;7.92;100.00;101046.63;10524938;28;20036;-76
2022/12/20 04:02:13;;;;;;;12.57;11.55;;;;;;;7.92;100.00;101046.63;10540237;27;20061;-75
2022/12/20 04:07:13;;;;;;;12.82;11.73;;;;;;;7.97;100.00;101038.56;10524476;28;20058;-74
2022/12/20 04:12:14;;;;;;;13.45;12.15;;;;;;;7.97;100.00;101049.50;10541977;28;20415;-75
2022/12/20 04:17:14;;;;;;;13.57;12.48;;;;;;;7.98;100.00;101056.66;10545271;28;20117;-75
2022/12/20 04:22:15;;;;;;;13.13;12.13;;;;;;;8.03;100.00;101059.56;10540688;28;20435;-75
2022/12/20 04:27:16;;;;;;;13.45;12.13;;;;;;;8.09;100.00;101062.19;10539473;28;20047;-72
2022/12/20 04:32:16;;;;;;;13.82;12.63;;;;;;;8.20;100.00;101068.78;10565881;27;20130;-75
2022/12/20 04:37:17;;;;;;;12.90;11.75;;;;;;;8.23;100.00;101057.34;10581213;27;20035;-75
2022/12/20 04:42:18;;;;;;;13.15;11.95;;;;;;;8.20;100.00;101055.06;10566409;27;20054;-74
2022/12/20 04:47:18;;;;;;;13.07;12.00;;;;;;;8.31;100.00;101056.19;10584936;27;20039;-76
2022/12/20 04:57:38;;;;;;;13.30;12.10;;;;;;;8.25;100.00;101044.25;10578873;27;20471;-75
2022/12/20 05:02:39;;;;;;;14.00;12.48;;;;;;;8.31;100.00;101060.81;10537686;28;20069;-76
2022/12/20 05:07:40;;;;;;;15.70;12.88;;;;;;;8.36;100.00;101041.75;10538024;28;20043;-76
2022/12/20 05:12:41;;;;;;;15.57;12.93;;;;;;;8.36;100.00;101045.34;10539285;28;20063;-75
2022/12/20 05:17:42;;;;;;;14.60;13.27;;;;;;;8.44;100.00;101025.00;10520494;28;20066;-74
2022/12/20 05:28:03;;;;;;;13.13;12.00;;;;;;;8.63;100.00;101018.31;10540062;28;20043;-75
2022/12/20 05:33:03;;;;;;;13.25;12.05;;;;;;;8.68;100.00;101001.97;10567170;28;20032;-75
2022/12/20 05:38:03;;;;;;;14.30;11.77;;;;;;;8.74;100.00;101002.09;10579937;28;20042;-75
2022/12/20 05:43:05;;;;;;;13.52;12.50;;;;;;;8.79;100.00;101007.72;10581343;28;20039;-75
2022/12/20 05:48:05;;;;;;;12.65;11.48;;;;;;;8.84;100.00;100994.09;10580871;28;20449;-75
2022/12/20 05:53:15;;;;;;;11.45;10.50;;;;;;;8.82;100.00;100975.09;10580843;28;20054;-75
2022/12/20 05:58:15;;;;;;;10.95;10.13;;;;;;;8.89;100.00;100972.25;10547355;28;20042;-75
2022/12/20 06:03:16;;;;;;;10.93;9.85;;;;;;;9.03;100.00;100981.03;10534200;28;20047;-75
2022/12/20 06:08:16;;;;;;;9.75;9.05;;;;;;;9.06;100.00;100980.56;10562446;28;20040;-75
2022/12/20 06:13:17;;;;;;;10.13;9.07;;;;;;;9.14;100.00;100982.13;10581994;28;20099;-75
2022/12/20 06:18:17;;;;;;;9.57;8.70;;;;;;;9.23;100.00;100953.19;10580924;28;20067;-76
2022/12/20 06:23:18;;;;;;;10.15;8.48;;;;;;;9.29;100.00;100976.94;10581773;28;20069;-76
2022/12/20 06:28:20;;;;;;;7.10;6.60;;;;;;;9.31;100.00;100971.22;10581254;28;20060;-75
2022/12/20 06:33:21;;;;;;;8.65;7.85;;;;;;;9.26;100.00;100963.66;10581068;28;20055;-76
2022/12/20 06:38:21;;;;;;;8.27;7.38;;;;;;;9.34;100.00;100966.03;10584103;28;20043;-75
2022/12/20 06:43:22;;;;;;;7.25;6.70;;;;;;;9.39;100.00;100970.81;10552286;28;20078;-74
2022/12/20 06:48:22;;;;;;;8.10;7.30;;;;;;;9.37;100.00;100957.31;10545166;28;20036;-71
2022/12/20 06:53:23;;;;;;;8.70;7.18;;;;;;;9.35;100.00;100945.75;10547405;28;21210;-75
2022/12/20 06:58:23;;;;;;;9.50;6.90;;;;;;;9.51;100.00;100952.38;10561618;28;20051;-75
2022/12/20 07:03:24;;;;;;;7.70;7.00;;;;;;;9.49;100.00;100966.34;10546084;28;20090;-77
2022/12/20 07:08:24;;;;;;;8.43;7.80;;;;;;;9.48;100.00;100967.41;10575905;27;20027;-76
2022/12/20 07:13:25;;;;;;;13.75;11.23;;;;;;;9.34;100.00;100974.28;10603628;27;20036;-77
2022/12/20 07:18:25;;;;;;;12.43;11.27;;;;;;;9.18;100.00;100964.09;10586516;27;20043;-77
2022/12/20 07:23:26;;;;;;;13.13;12.02;;;;;;;9.05;100.00;100979.75;10587581;27;20036;-76
2022/12/20 07:28:27;;;;;;;15.35;13.73;;;;;;;8.99;100.00;100967.00;10568036;27;20042;-77
2022/12/20 07:33:28;;;;;;;15.88;14.25;;;;;;;8.98;100.00;100972.72;10582871;27;20043;-76
2022/12/20 07:38:28;;;;;;;15.70;14.25;;;;;;;8.93;100.00;100987.16;10539289;28;20035;-75
2022/12/20 07:43:29;;;;;;;16.90;15.35;;;;;;;8.94;100.00;100975.09;10587824;27;20455;-77
2022/12/20 07:48:29;;;;;;;15.88;14.27;;;;;;;8.82;100.00;100950.41;10585763;27;20040;-76
2022/12/20 07:53:30;;;;;;;16.90;15.30;;;;;;;8.88;100.00;100970.56;10586030;27;20031;-76
2022/12/20 07:58:31;;;;;;;16.63;15.18;;;;;;;8.79;100.00;100963.78;10585854;27;20024;-77
2022/12/20 08:03:35;;;;;;;17.95;15.98;;;;;;;8.81;100.00;100978.94;10564694;27;20032;-78
2022/12/20 08:08:38;;;;;;;17.33;15.70;;;;;;;8.84;100.00;100972.13;10584592;27;20031;-76
2022/12/20 08:13:39;;;;;;;18.45;16.75;;;;;;;8.88;100.00;100979.63;10586782;27;20053;-77
2022/12/20 08:18:39;;;;;;;17.98;16.58;;;;;;;8.92;100.00;100981.91;10584208;27;20390;-78
2022/12/20 08:23:40;;;;;;;20.52;18.77;;;;;;;8.95;100.00;100965.78;10536968;27;20411;-76
2022/12/20 08:28:40;;;;;;;19.95;18.02;;;;;;;8.96;100.00;100967.47;10562176;28;20424;-77
2022/12/20 08:33:41;;;;;;;20.13;18.17;;;;;;;8.96;100.00;100961.97;10566964;27;20032;-76
2022/12/20 08:38:41;;;;;;;18.55;17.15;;;;;;;9.02;100.00;100958.25;10568415;27;20044;-77
2022/12/20 08:43:42;;;;;;;18.17;16.67;;;;;;;9.08;100.00;100960.03;10553813;27;20437;-76
2022/12/20 08:48:42;;;;;;;18.10;16.52;;;;;;;9.18;100.00;100953.09;10543659;28;20039;-72
2022/12/20 08:53:43;;;;;;;17.42;16.00;;;;;;;9.01;100.00;100933.78;10561844;28;20047;-77
2022/12/20 08:58:43;;;;;;;15.90;14.80;;;;;;;9.20;100.00;100942.66;10527471;28;20036;-77
2022/12/20 09:03:44;;;;;;;16.15;14.85;;;;;;;9.23;100.00;100947.69;10544857;27;20404;-76
2022/12/20 09:08:45;;;;;;;16.60;15.07;;;;;;;9.11;100.00;100928.50;10564563;27;20035;-77
2022/12/20 09:13:46;;;;;;;14.65;13.63;;;;;;;9.14;100.00;100924.44;10525482;28;20047;-77
2022/12/20 09:18:48;;;;;;;13.80;12.73;;;;;;;9.21;100.00;100927.88;10561790;28;20460;-77
2022/12/20 09:23:52;;;;;;;13.18;12.20;;;;;;;9.20;100.00;100920.69;10564471;28;20035;-77
2022/12/20 09:28:53;;;;;;;10.80;10.00;;;;;;;9.34;100.00;100922.06;10582718;27;20035;-77
2022/12/20 09:33:54;;;;;;;9.25;8.55;;;;;;;9.42;100.00;100923.59;10564684;27;20107;-77
2022/12/20 09:38:55;;;;;;;7.85;7.00;;;;;;;9.57;100.00;100920.31;10580109;28;20077;-76
2022/12/20 09:43:57;;;;;;;7.78;7.03;;;;;;;9.70;100.00;100917.25;10557805;27;20044;-77
2022/12/20 09:48:57;;;;;;;10.80;6.38;;;;;;;9.78;100.00;100900.38;10521327;28;20067;-77
2022/12/20 09:54:02;;;;;;;21.02;8.07;;;;;;;9.82;100.00;100912.53;10521700;28;20032;-76
2022/12/20 09:59:05;;;;;;;7.20;6.07;;;;;;;9.76;100.00;100897.03;10535433;28;20484;-77
2022/12/20 10:04:09;;;;;;;7.18;6.35;;;;;;;9.85;100.00;100906.53;10539127;28;20044;-78
2022/12/20 10:09:35;;;;;;;7.90;5.68;;;;;;;9.86;100.00;100910.97;10536805;28;20039;-78
2022/12/20 10:14:54;;;;;;;6.22;5.63;;;;;;;9.89;100.00;100904.13;10587962;27;20053;-77
2022/12/20 10:20:25;;;;;;;7.15;5.72;;;;;;;9.85;100.00;100895.53;10588579;27;20043;-77
2022/12/20 10:25:30;;;;;;;6.60;6.10;;;;;;;9.76;100.00;100886.03;10606013;27;20036;-76
2022/12/20 10:30:32;;;;;;;9.00;6.45;;;;;;;9.74;100.00;100879.94;10605886;27;20062;-77
2022/12/20 10:35:39;;;;;;;8.50;7.53;;;;;;;9.68;100.00;100876.28;10590711;27;20503;-76
2022/12/20 10:41:00;;;;;;;8.20;7.50;;;;;;;9.64;100.00;100886.09;10550021;28;20457;-78
2022/12/20 10:46:03;;;;;;;8.13;7.38;;;;;;;9.65;100.00;100900.66;10574926;27;20063;-77
2022/12/20 10:51:11;;;;;;;10.20;8.40;;;;;;;9.58;100.00;100905.50;10565433;27;20036;-77
2022/12/20 10:56:31;;;;;;;10.75;9.57;;;;;;;9.51;100.00;100883.66;10564965;27;20100;-77
2022/12/20 11:01:35;;;;;;;9.57;8.68;;;;;;;9.36;100.00;100859.47;10570851;28;20043;-78
2022/12/20 11:06:38;;;;;;;10.18;9.27;;;;;;;9.47;100.00;100872.34;10552171;27;20046;-77
2022/12/20 11:11:38;;;;;;;11.15;9.60;;;;;;;9.45;100.00;100877.25;10586365;27;20329;-73
2022/12/20 11:16:39;;;;;;;10.70;9.82;;;;;;;9.39;100.00;100885.66;10574616;27;20043;-76
2022/12/20 11:22:03;;;;;;;11.20;10.40;;;;;;;9.35;100.00;100863.31;10563789;27;20133;-76
2022/12/20 11:27:19;;;;;;;13.10;11.80;;;;;;;9.37;100.00;100858.41;10563127;27;20097;-77
2022/12/20 11:32:25;;;;;;;12.85;11.73;;;;;;;9.35;100.00;100873.47;10544843;27;20388;-77
2022/12/20 11:37:26;;;;;;;14.02;12.30;;;;;;;9.38;100.00;100862.81;10563103;27;20040;-77
2022/12/20 11:42:48;;;;;;;13.38;12.23;;;;;;;9.38;100.00;100860.06;10567764;28;20040;-76
2022/12/20 11:48:08;;;;;;;13.00;11.68;;;;;;;9.44;100.00;100859.06;10565895;27;20047;-79
2022/12/20 11:53:33;;;;;;;13.23;12.27;;;;;;;9.46;100.00;100859.66;10575128;27;20107;-76
2022/12/20 11:58:33;;;;;;;13.13;12.02;;;;;;;9.44;100.00;100861.81;10562434;27;20028;-76
2022/12/20 12:03:35;;;;;;;13.23;12.23;;;;;;;9.33;100.00;100850.91;10558856;27;20040;-75
2022/12/20 12:08:45;;;;;;;13.98;12.60;;;;;;;9.43;100.00;100851.09;10563371;27;20032;-77
2022/12/20 12:13:46;;;;;;;13.27;12.15;;;;;;;9.43;100.00;100838.19;10547463;28;20040;-76
2022/12/20 12:18:46;;;;;;;13.88;12.68;;;;;;;9.46;100.00;100840.41;10537902;27;20035;-76
2022/12/20 12:24:01;;;;;;;13.40;12.23;;;;;;;9.41;100.00;100829.34;10547687;28;20105;-75
2022/12/20 12:29:07;;;;;;;13.77;12.77;;;;;;;9.49;100.00;100831.69;10524560;28;20040;-76
2022/12/20 12:34:22;;;;;;;13.63;12.73;;;;;;;9.45;100.00;100819.53;10523879;28;20032;-75
2022/12/20 12:40:00;;;;;;;13.13;12.13;;;;;;;9.47;100.00;100839.34;10560013;27;20465;-76
2022/12/20 12:45:03;;;;;;;13.70;12.50;;;;;;;9.46;100.00;100840.41;10544339;28;20048;-76
2022/12/20 12:50:07;;;;;;;14.38;13.18;;;;;;;9.46;100.00;100843.16;10524236;28;20036;-76
2022/12/20 12:55:36;;;;;;;13.60;12.60;;;;;;;9.43;100.00;100838.19;10524184;28;20036;-75
2022/12/20 13:00:48;;;;;;;14.00;12.68;;;;;;;9.45;100.00;100835.19;10560674;28;20031;-74
2022/12/20 13:05:49;;;;;;;13.98;12.95;;;;;;;9.45;100.00;100833.28;10559698;27;20450;-75
2022/12/20 13:10:55;;;;;;;14.77;13.68;;;;;;;9.45;100.00;100825.03;10542562;27;20039;-75
2022/12/20 13:16:04;;;;;;;14.05;13.05;;;;;;;9.44;100.00;100828.84;10550003;28;20043;-75
2022/12/20 13:21:17;;;;;;;15.55;14.25;;;;;;;9.36;100.00;100850.41;10539042;28;20403;-75
2022/12/20 13:26:40;;;;;;;15.55;14.15;;;;;;;9.32;100.00;100828.06;10541302;28;20123;-75
2022/12/20 13:31:41;;;;;;;17.45;16.13;;;;;;;9.34;100.00;100830.59;10540618;28;20043;-73
2022/12/20 13:36:42;;;;;;;17.65;15.65;;;;;;;9.34;100.00;100831.41;10522420;28;20074;-77
2022/12/20 13:41:46;;;;;;;17.77;16.25;;;;;;;9.24;100.00;100823.84;10576388;27;20052;-76
2022/12/20 13:47:02;;;;;;;16.65;15.25;;;;;;;9.25;100.00;100830.16;10564095;27;20058;-78
2022/12/20 13:52:26;;;;;;;18.38;16.48;;;;;;;9.25;100.00;100836.47;10581783;27;20400;-78
2022/12/20 13:57:40;;;;;;;18.88;16.92;;;;;;;9.26;100.00;100837.31;10564224;27;20092;-74
2022/12/20 14:02:41;;;;;;;18.85;17.02;;;;;;;9.24;100.00;100845.81;10564411;27;20564;-78
2022/12/20 14:07:42;;;;;;;18.73;16.92;;;;;;;9.22;100.00;100842.47;10578934;27;20114;-76
2022/12/20 14:12:44;;;;;;;19.58;17.67;;;;;;;9.20;100.00;100843.78;10580853;27;20048;-77
2022/12/20 14:17:44;;;;;;;19.73;17.92;;;;;;;9.23;100.00;100848.81;10582515;27;20043;-77
2022/12/20 14:22:51;;;;;;;18.23;16.45;;;;;;;9.12;100.00;100841.47;10580618;27;20027;-77
2022/12/20 14:27:51;;;;;;;20.75;18.25;;;;;;;9.15;100.00;100840.94;10562905;27;20036;-75
2022/12/20 14:32:53;;;;;;;18.48;16.92;;;;;;;9.20;100.00;100860.25;10580046;27;20024;-76
2022/12/20 14:37:59;;;;;;;19.38;17.60;;;;;;;9.17;100.00;100844.28;10540792;27;20029;-77
2022/12/20 14:42:59;;;;;;;18.33;16.92;;;;;;;9.24;100.00;100851.31;10554038;28;20047;-76
2022/12/20 14:48:02;;;;;;;20.17;18.33;;;;;;;9.20;100.00;100835.53;10521011;28;20427;-76
2022/12/20 14:53:03;;;;;;;20.45;18.40;;;;;;;9.31;100.00;100855.81;10520985;28;20085;-73
2022/12/20 14:58:26;;;;;;;21.05;19.15;;;;;;;9.32;100.00;100836.31;10523058;28;20086;-76
2022/12/20 15:03:27;;;;;;;21.92;19.92;;;;;;;9.31;100.00;100848.41;10545970;28;20107;-77
2022/12/20 15:08:33;;;;;;;22.02;19.95;;;;;;;9.23;100.00;100837.81;10544804;28;20039;-74
2022/12/20 15:13:34;;;;;;;;;;;;;;;9.31;100.00;100845.66;10546013;28;20085;-74
2022/12/20 15:18:35;;;;;;;21.55;19.45;;;;;;;9.22;100.00;100825.13;10546385;28;19920;-77
2022/12/20 15:23:35;;;;;;;24.40;21.95;;;;;;;9.31;100.00;100851.16;10543890;28;20032;-77
2022/12/20 15:28:36;;;;;;;24.67;22.38;;;;;;;9.32;100.00;100863.78;10548873;28;20051;-76
2022/12/20 15:33:37;;;;;;;25.08;22.50;;;;;;;9.27;100.00;100850.81;10587045;27;20024;-74
2022/12/20 15:38:38;;;;;;;24.70;22.25;;;;;;;9.32;100.00;100852.81;10585894;27;20028;-75
2022/12/20 15:43:38;;;;;;;27.17;23.77;;;;;;;9.36;100.00;100855.91;10560971;27;20032;-77
2022/12/20 15:48:39;;;;;;;27.92;23.70;;;;;;;9.36;100.00;100848.47;10586244;27;20027;-74
2022/12/20 15:53:39;;;;;;;27.75;24.77;;;;;;;9.28;100.00;100827.75;10586517;27;20040;-74
2022/12/20 15:58:40;;;;;;;28.73;25.73;;;;;;;9.32;100.00;100836.31;10567752;27;20043;-77
2022/12/20 16:03:40;;;;;;;29.90;26.73;;;;;;;9.28;100.00;100836.00;10567486;27;20035;-75
2022/12/20 16:08:41;;;;;;;29.17;26.02;;;;;;;9.26;100.00;100849.16;10566819;27;20062;-77
2022/12/20 16:13:41;;;;;;;30.45;26.23;;;;;;;9.32;100.00;100852.81;10568129;27;20552;-78
2022/12/20 16:18:43;;;;;;;37.22;27.50;;;;;;;9.33;100.00;100851.72;10584461;27;20044;-76
2022/12/20 16:23:45;;;;;;;35.90;28.55;;;;;;;9.33;100.00;100853.66;10583122;27;20036;-79
2022/12/20 16:28:46;;;;;;;34.28;28.75;;;;;;;9.34;100.00;100856.13;10585326;27;20089;-77
2022/12/20 16:33:47;;;;;;;39.80;30.38;;;;;;;9.31;100.00;100856.66;10585335;27;20081;-78
2022/12/20 16:38:48;;;;;;;37.47;30.27;;;;;;;9.29;100.00;100848.63;10583735;27;20035;-77
2022/12/20 16:43:48;;;;;;;34.53;29.60;;;;;;;9.30;100.00;100857.72;10550134;27;20833;-78
2022/12/20 16:48:49;;;;;;;34.45;28.77;;;;;;;9.31;100.00;100851.16;10542218;28;20065;-77
2022/12/20 16:54:12;;;;;;;41.08;30.70;;;;;;;9.28;100.00;100857.13;10523103;28;20036;-74
2022/12/20 16:59:13;;;;;;;43.33;30.60;;;;;;;9.29;100.00;100864.28;10556158;28;20054;-78
2022/12/20 17:04:15;;;;;;;42.63;31.08;;;;;;;9.16;100.00;100856.38;10522238;28;20039;-77
2022/12/20 17:09:16;;;;;;;39.72;31.23;;;;;;;9.22;100.00;100871.84;10539923;28;20107;-77
2022/12/20 17:14:18;;;;;;;44.30;31.60;;;;;;;9.27;100.00;100877.44;10540270;28;20044;-77
2022/12/20 17:19:19;;;;;;;42.05;29.63;;;;;;;9.25;100.00;100880.44;10541062;28;20074;-80
2022/12/20 17:24:20;;;;;;;48.88;31.77;;;;;;;9.25;100.00;100874.09;10539215;28;20047;-78
2022/12/20 17:29:21;;;;;;;50.70;32.38;;;;;;;9.24;100.00;100875.19;10541650;28;20039;-78
2022/12/20 17:34:22;;;;;;;52.78;31.23;;;;;;;9.24;100.00;100877.91;10574806;28;20035;-77
2022/12/20 17:39:23;;;;;;;47.53;31.90;;;;;;;9.19;100.00;100877.84;10563420;28;20403;-78
2022/12/20 17:44:25;;;;;;;50.53;33.72;;;;;;;9.23;100.00;100888.09;10563341;28;20032;-77
2022/12/20 17:49:25;;;;;;;58.60;34.70;;;;;;;9.26;100.00;100889.50;10563038;28;20035;-80
2022/12/20 17:54:26;;;;;;;74.28;38.92;;;;;;;9.17;100.00;100874.50;10581335;28;20039;-77
2022/12/20 17:59:28;;;;;;;67.55;38.10;;;;;;;9.28;100.00;100876.34;10562336;28;20031;-77
2022/12/20 18:04:28;;;;;;;63.42;35.65;;;;;;;9.28;100.00;100884.59;10580074;28;20031;-78
2022/12/20 18:09:29;;;;;;;61.50;34.30;;;;;;;9.24;100.00;100878.78;10541600;28;20035;-78
2022/12/20 18:14:29;;;;;;;68.95;37.65;;;;;;;9.25;100.00;100880.44;10562562;28;20065;-78
2022/12/20 18:19:30;;;;;;;91.38;46.58;;;;;;;9.24;100.00;100883.41;10578808;28;20088;-78
2022/12/20 18:24:31;;;;;;;82.97;41.80;;;;;;;9.20;100.00;100876.75;10544723;28;20105;-78
2022/12/20 18:29:31;;;;;;;75.40;39.53;;;;;;;9.22;100.00;100891.06;10515493;28;20032;-73
2022/12/20 18:34:32;;;;;;;72.50;37.83;;;;;;;9.13;100.00;100876.06;10568633;27;21023;-79
2022/12/20 18:39:32;;;;;;;90.10;41.35;;;;;;;9.19;100.00;100886.91;10552623;28;20031;-77
2022/12/20 18:44:34;;;;;;;86.65;40.42;;;;;;;9.18;100.00;100878.94;10569534;27;20031;-78
2022/12/20 18:49:36;;;;;;;88.57;40.03;;;;;;;9.15;100.00;100876.66;10566520;27;20044;-79
2022/12/20 18:54:36;;;;;;;93.03;41.72;;;;;;;9.18;100.00;100878.94;10547416;28;20048;-78
2022/12/20 18:59:37;;;;;;;92.38;40.55;;;;;;;9.20;100.00;100879.50;10569024;27;20032;-78
2022/12/20 19:04:37;;;;;;;93.72;41.17;;;;;;;9.16;100.00;100883.84;10563208;27;20032;-78
2022/12/20 19:09:38;;;;;;;90.90;40.90;;;;;;;9.16;100.00;100876.41;10544640;27;20039;-81
2022/12/20 19:14:38;;;;;;;94.35;43.08;;;;;;;9.15;100.00;100882.16;10586494;27;20576;-82
2022/12/20 19:19:39;;;;;;;97.85;43.22;;;;;;;9.08;100.00;100872.13;10587355;27;20406;-84
2022/12/20 19:24:39;;;;;;;88.03;39.85;;;;;;;9.13;100.00;100873.31;10586925;27;20036;-79
2022/12/20 19:29:40;;;;;;;94.38;41.05;;;;;;;9.12;100.00;100874.41;10551950;27;20040;-83
2022/12/20 19:34:40;;;;;;;101.78;41.88;;;;;;;9.12;100.00;100874.41;10552112;27;20027;-82
2022/12/20 19:39:41;;;;;;;90.97;40.65;;;;;;;9.04;100.00;100875.63;10590677;27;20200;-80
2022/12/20 19:44:41;;;;;;;91.45;39.67;;;;;;;9.01;100.00;100876.97;10564268;27;20027;-83
2022/12/20 19:49:42;;;;;;;81.47;37.22;;;;;;;9.06;100.00;100879.78;10600534;27;20051;-83
2022/12/20 19:54:42;;;;;;;98.38;40.88;;;;;;;9.04;100.00;100889.34;10586804;27;20031;-83
2022/12/20 19:59:42;;;;;;;108.03;40.53;;;;;;;8.91;100.00;100868.50;10587828;27;20032;-82
2022/12/20 20:04:43;;;;;;;120.75;42.45;;;;;;;9.00;100.00;100904.66;10568997;28;20039;-82
2022/12/20 20:09:44;;;;;;;98.95;40.05;;;;;;;9.03;100.00;100915.13;10573499;27;20051;-84
2022/12/20 20:14:44;;;;;;;81.85;35.88;;;;;;;9.00;100.00;100916.47;10554647;28;20031;-82
2022/12/20 20:19:45;;;;;;;71.72;31.50;;;;;;;9.00;100.00;100915.63;10582453;27;20074;-82
2022/12/20 20:24:46;;;;;;;57.05;27.88;;;;;;;8.91;100.00;100915.19;10581944;27;20124;-83
2022/12/20 20:29:48;;;;;;;51.28;25.40;;;;;;;8.87;100.00;100912.09;10540547;27;20110;-81
2022/12/20 20:34:49;;;;;;;55.25;27.20;;;;;;;8.82;100.00;100916.63;10570861;27;20062;-81
2022/12/20 20:39:49;;;;;;;52.00;26.23;;;;;;;8.79;100.00;100915.19;10551635;28;20483;-81
2022/12/20 20:44:50;;;;;;;51.42;26.80;;;;;;;8.74;100.00;100920.56;10580051;27;20502;-79
2022/12/20 20:49:51;;;;;;;56.70;27.45;;;;;;;8.72;100.00;100905.41;10593759;27;20423;-80
2022/12/20 20:54:52;;;;;;;61.50;28.85;;;;;;;8.68;100.00;100908.66;10573753;27;20032;-79
2022/12/20 20:59:52;;;;;;;66.28;32.20;;;;;;;8.68;100.00;100922.38;10581137;27;20032;-80
2022/12/20 21:04:53;;;;;;;75.57;30.45;;;;;;;8.65;100.00;100920.09;10547278;27;20032;-79
2022/12/20 21:09:53;;;;;;;72.07;33.75;;;;;;;8.61;100.00;100918.91;10541806;27;20047;-78
2022/12/20 21:14:54;;;;;;;81.78;34.40;;;;;;;8.60;100.00;100925.50;10519490;28;20391;-80
2022/12/20 21:19:54;;;;;;;84.13;35.83;;;;;;;8.59;100.00;100920.25;10544767;27;20932;-79
2022/12/20 21:24:56;;;;;;;84.28;37.58;;;;;;;8.57;100.00;100917.72;10562056;28;20570;-79
2022/12/20 21:29:56;;;;;;;90.38;37.90;;;;;;;8.56;100.00;100916.06;10539275;28;20036;-81
2022/12/20 21:34:58;;;;;;;90.18;36.88;;;;;;;8.54;100.00;100920.97;10538878;28;20537;-80
2022/12/20 21:39:58;;;;;;;85.57;37.58;;;;;;;8.53;100.00;100921.19;10549290;28;20044;-80
2022/12/20 21:44:59;;;;;;;114.32;38.67;;;;;;;8.49;100.00;100926.31;10578236;28;20036;-80
2022/12/20 21:49:59;;;;;;;91.80;38.78;;;;;;;8.45;100.00;100926.00;10578739;28;20040;-80
2022/12/20 21:55:00;;;;;;;97.55;37.53;;;;;;;8.39;100.00;100920.56;10544708;28;20031;-81
2022/12/20 22:00:00;;;;;;;96.28;36.72;;;;;;;8.34;100.00;100921.28;10578736;28;20037;-80
2022/12/20 22:05:01;;;;;;;94.55;38.30;;;;;;;8.18;100.00;100925.56;10581610;28;20059;-79
2022/12/20 22:10:01;;;;;;;95.60;36.53;;;;;;;8.20;100.00;100917.94;10526235;27;20119;-80
2022/12/20 22:15:01;;;;;;;96.93;40.03;;;;;;;8.13;100.00;100922.72;10588256;27;20036;-79
2022/12/20 22:20:02;;;;;;;110.82;40.50;;;;;;;8.13;100.00;100916.41;10585265;27;20075;-80
2022/12/20 22:25:03;;;;;;;107.20;39.50;;;;;;;8.01;100.00;100914.47;10584368;27;20051;-80
2022/12/20 22:30:04;;;;;;;128.25;40.95;;;;;;;7.87;100.00;100902.91;10535045;28;20036;-80
2022/12/20 22:35:05;;;;;;;125.07;40.05;;;;;;;7.97;100.00;100920.66;10547225;27;20436;-80
2022/12/20 22:40:06;;;;;;;132.60;37.63;;;;;;;7.87;100.00;100937.69;10577020;27;20043;-81
2022/12/20 22:45:07;;;;;;;112.53;42.35;;;;;;;7.87;100.00;100963.22;10560872;27;20068;-80
2022/12/20 22:50:09;;;;;;;130.48;45.42;;;;;;;7.86;100.00;100972.50;10550449;27;20036;-79
2022/12/20 22:55:09;;;;;;;126.93;44.63;;;;;;;7.75;100.00;100943.16;10585722;27;20044;-79